Time;durP1;ratioP1;P1;durP2;ratioP2;P2;SDS_P1;SDS_P2;PMS_P1;PMS_P2;Temp;Humidity;BMP_temperature;BMP_pressure;BME280_temperature;BME280_humidity;BME280_pressure;Samples;Min_cycle;Max_cycle;Signal;HPM_P1;HPM_P2
2020/12/18 00:00:43;;;;;;;;;;;;;;;21.31;44.67;101199.06;3131284;27;115919;-56
2020/12/18 00:02:14;;;;;;;;;;;;;;;21.33;44.41;101202.41;3134946;27;115934;-58
2020/12/18 00:03:47;;;;;;;;;;;;;;;21.36;44.31;101206.56;3137686;27;114740;-57
2020/12/18 00:05:18;;;;;;;;;;;;;;;21.37;44.64;101197.84;3135379;27;113774;-57
2020/12/18 00:06:49;;;;;;;;;;;;;;;21.39;44.50;101198.38;3135372;27;114511;-57
2020/12/18 00:08:20;;;;;;;;;;;;;;;21.39;44.31;101198.38;3121413;27;114220;-57
2020/12/18 00:09:51;;;;;;;;;;;;;;;21.42;44.59;101203.38;3130387;27;114290;-57
2020/12/18 00:11:23;;;;;;;;;;;;;;;21.43;44.47;101207.84;3135093;27;114126;-57
2020/12/18 00:12:54;;;;;;;;;;;;;;;21.43;44.49;101205.03;3121382;27;113997;-57
2020/12/18 00:14:25;;;;;;;;;;;;;;;21.44;44.27;101203.88;3130970;27;114134;-60
2020/12/18 00:15:56;;;;;;;;;;;;;;;21.45;44.16;101204.72;3135291;27;114235;-59
2020/12/18 00:17:27;;;;;;;;;;;;;;;21.47;44.39;101202.44;3134305;27;114538;-58
2020/12/18 00:18:59;;;;;;;;;;;;;;;21.47;44.42;101196.81;3111072;27;113952;-59
2020/12/18 00:20:30;;;;;;;;;;;;;;;21.48;44.47;101204.13;3130305;27;113976;-60
2020/12/18 00:22:01;;;;;;;;;;;;;;;21.48;44.38;101207.75;3135737;27;113730;-59
2020/12/18 00:23:33;;;;;;;;;;;;;;;21.49;44.21;101209.41;3125242;27;114431;-59
2020/12/18 00:25:04;;;;;;;;;;;;;;;21.50;44.39;101213.91;3134573;27;114116;-58
2020/12/18 00:26:35;;;;;;;;;;;;;;;21.49;44.42;101200.97;3128899;27;113969;-58
2020/12/18 00:28:06;;;;;;;;;;;;;;;21.50;44.31;101208.28;3127211;27;115603;-59
2020/12/18 00:29:38;;;;;;;;;;;;;;;21.50;44.33;101205.47;3134362;27;115973;-59
2020/12/18 00:31:09;;;;;;;;;;;;;;;21.49;44.38;101215.03;3122001;27;114208;-59
2020/12/18 00:32:41;;;;;;;;;;;;;;;21.49;44.34;101212.22;3121796;27;114123;-58
2020/12/18 00:34:12;;;;;;;;;;;;;;;21.50;44.41;101204.63;3122039;27;114490;-58
2020/12/18 00:35:43;;;;;;;;;;;;;;;21.50;44.35;101202.66;3132494;27;115080;-58
2020/12/18 00:37:14;;;;;;;;;;;;;;;21.49;44.19;101198.16;3134971;27;114225;-58
2020/12/18 00:38:45;;;;;;;;;;;;;;;21.49;44.48;101200.97;3120215;27;114583;-59
2020/12/18 00:40:17;;;;;;;;;;;;;;;21.50;44.57;101199.00;3121597;27;115301;-59
2020/12/18 00:41:52;;;;;;;;;;;;;;;21.49;44.48;101195.34;3130272;27;114321;-58
2020/12/18 00:43:23;;;;;;;;;;;;;;;21.50;44.53;101196.19;3134687;27;114873;-59
2020/12/18 00:44:55;;;;;;;;;;;;;;;21.49;44.39;101189.72;3134527;27;115063;-58
2020/12/18 00:46:26;;;;;;;;;;;;;;;21.49;44.53;101177.66;3139402;27;114135;-59
2020/12/18 00:47:57;;;;;;;;;;;;;;;21.48;44.26;101174.03;3133586;27;115225;-58
2020/12/18 00:49:28;;;;;;;;;;;;;;;21.47;44.06;101183.59;3134716;27;115174;-58
2020/12/18 00:50:59;;;;;;;;;;;;;;;21.47;44.18;101183.59;3135006;27;115899;-59
2020/12/18 00:52:30;;;;;;;;;;;;;;;21.47;43.98;101180.78;3135139;27;115155;-59
2020/12/18 00:54:01;;;;;;;;;;;;;;;21.48;44.21;101178.81;3133194;27;117643;-59
2020/12/18 00:55:33;;;;;;;;;;;;;;;21.47;44.69;101188.38;3134906;27;116200;-58
2020/12/18 00:57:04;;;;;;;;;;;;;;;21.45;44.70;101185.88;3134730;27;115056;-58
2020/12/18 00:58:35;;;;;;;;;;;;;;;21.46;44.66;101187.53;3135040;27;115050;-59
2020/12/18 01:00:06;;;;;;;;;;;;;;;21.45;44.41;101183.06;3110681;27;116454;-59
2020/12/18 01:01:37;;;;;;;;;;;;;;;21.46;44.58;101183.91;3125370;27;115684;-59
2020/12/18 01:03:08;;;;;;;;;;;;;;;21.45;44.59;101182.22;3135067;27;114872;-58
2020/12/18 01:04:39;;;;;;;;;;;;;;;21.43;44.30;101185.38;3133813;27;116077;-58
2020/12/18 01:06:11;;;;;;;;;;;;;;;21.44;44.17;101174.97;3134490;27;115837;-58
2020/12/18 01:07:42;;;;;;;;;;;;;;;21.43;44.24;101171.31;3134994;27;115923;-58
2020/12/18 01:09:15;;;;;;;;;;;;;;;21.42;44.67;101158.38;3136849;27;114657;-60
2020/12/18 01:10:46;;;;;;;;;;;;;;;21.40;44.14;101163.47;3135957;27;114143;-59
2020/12/18 01:12:17;;;;;;;;;;;;;;;21.40;44.46;101157.84;3134908;27;113921;-59
2020/12/18 01:13:48;;;;;;;;;;;;;;;21.40;44.53;101173.88;3135466;27;113659;-59
2020/12/18 01:15:19;;;;;;;;;;;;;;;21.37;44.05;101164.09;3134497;27;113831;-59
2020/12/18 01:16:51;;;;;;;;;;;;;;;21.37;44.39;101160.44;3133055;27;113882;-59
2020/12/18 01:18:23;;;;;;;;;;;;;;;21.36;44.31;101168.03;3130815;27;114001;-58
2020/12/18 01:19:54;;;;;;;;;;;;;;;21.36;44.65;101167.22;3135153;27;113902;-59
2020/12/18 01:21:25;;;;;;;;;;;;;;;21.34;44.49;101167.53;3134050;27;113811;-58
2020/12/18 01:22:56;;;;;;;;;;;;;;;21.35;44.44;101165.56;3120059;27;114189;-58
2020/12/18 01:24:27;;;;;;;;;;;;;;;21.34;44.19;101159.09;3128464;27;114890;-61
2020/12/18 01:25:58;;;;;;;;;;;;;;;21.32;44.52;101166.16;3135293;27;113675;-59
2020/12/18 01:27:29;;;;;;;;;;;;;;;21.33;44.38;101167.84;3134794;27;114060;-59
2020/12/18 01:29:00;;;;;;;;;;;;;;;21.30;44.36;101164.50;3133449;27;113992;-58
2020/12/18 01:30:31;;;;;;;;;;;;;;;21.30;44.32;101169.31;3138043;27;114009;-58
2020/12/18 01:32:02;;;;;;;;;;;;;;;21.29;44.56;101156.38;3132879;27;115943;-59
2020/12/18 01:33:34;;;;;;;;;;;;;;;21.27;44.81;101151.06;3134131;27;115762;-59
2020/12/18 01:35:05;;;;;;;;;;;;;;;21.25;44.70;101155.34;3134479;27;114210;-59
2020/12/18 01:36:36;;;;;;;;;;;;;;;21.23;45.04;101147.19;3121089;27;114905;-59
2020/12/18 01:38:07;;;;;;;;;;;;;;;21.23;44.79;101161.25;3129961;27;116960;-59
2020/12/18 01:39:39;;;;;;;;;;;;;;;21.22;44.59;101153.13;3134393;27;114131;-60
2020/12/18 01:41:10;;;;;;;;;;;;;;;21.21;44.93;101157.09;3134873;27;114069;-59
2020/12/18 01:42:41;;;;;;;;;;;;;;;21.18;45.08;101133.25;3134150;27;115257;-59
2020/12/18 01:44:12;;;;;;;;;;;;;;;21.19;44.62;101128.47;3134914;27;115278;-59
2020/12/18 01:45:43;;;;;;;;;;;;;;;21.17;44.85;101147.59;3135079;27;113996;-60
2020/12/18 01:47:19;;;;;;;;;;;;;;;21.16;45.00;101146.78;3135398;27;114101;-59
2020/12/18 01:48:50;;;;;;;;;;;;;;;21.16;45.04;101141.16;3122868;27;115317;-59
2020/12/18 01:50:21;;;;;;;;;;;;;;;21.16;44.68;101149.59;3132404;27;114472;-59
2020/12/18 01:51:53;;;;;;;;;;;;;;;21.16;45.05;101134.72;3139565;27;114523;-59
2020/12/18 01:53:26;;;;;;;;;;;;;;;21.14;44.86;101129.38;3136565;27;115737;-59
2020/12/18 01:55:01;;;;;;;;;;;;;;;21.15;44.63;101133.03;3123055;27;115886;-59
2020/12/18 01:56:32;;;;;;;;;;;;;;;21.12;44.87;101137.25;3133201;27;115071;-59
2020/12/18 01:58:03;;;;;;;;;;;;;;;21.11;44.79;101132.78;3136456;27;115811;-59
2020/12/18 01:59:34;;;;;;;;;;;;;;;21.11;44.88;101134.75;3137225;27;115915;-59
2020/12/18 02:01:06;;;;;;;;;;;;;;;21.11;44.58;101138.41;3135177;27;115798;-59
2020/12/18 02:02:39;;;;;;;;;;;;;;;21.10;45.03;101135.91;3132106;27;115622;-59
2020/12/18 02:04:10;;;;;;;;;;;;;;;21.09;44.84;101131.41;3133185;27;116417;-58
2020/12/18 02:05:41;;;;;;;;;;;;;;;21.10;45.02;101130.28;3136982;27;115503;-59
2020/12/18 02:07:13;;;;;;;;;;;;;;;21.08;44.94;101130.56;3137299;27;115852;-59
2020/12/18 02:08:44;;;;;;;;;;;;;;;21.07;45.42;101131.75;3132765;27;115578;-58
2020/12/18 02:10:15;;;;;;;;;;;;;;;21.07;45.12;101140.16;3136576;27;115901;-59
2020/12/18 02:11:47;;;;;;;;;;;;;;;21.06;45.03;101135.69;3135796;27;115919;-59
2020/12/18 02:13:19;;;;;;;;;;;;;;;21.05;45.28;101131.19;3139765;27;115922;-59
2020/12/18 02:14:51;;;;;;;;;;;;;;;21.03;45.03;101135.47;3134877;27;114811;-59
2020/12/18 02:16:22;;;;;;;;;;;;;;;21.01;44.95;101124.53;3136617;27;114080;-59
2020/12/18 02:17:53;;;;;;;;;;;;;;;21.00;45.32;101128.47;3121524;27;114482;-59
2020/12/18 02:19:27;;;;;;;;;;;;;;;21.00;45.23;101119.22;3131617;27;113943;-59
2020/12/18 02:21:09;;;;;;;;;;;;;;;20.99;45.09;101131.59;3121879;27;114042;-59
2020/12/18 02:22:40;;;;;;;;;;;;;;;20.98;44.90;101127.97;3122678;27;114230;-59
2020/12/18 02:24:20;;;;;;;;;;;;;;;20.97;45.22;101119.84;3129802;27;115108;-59
2020/12/18 02:26:03;;;;;;;;;;;;;;;20.96;45.00;101124.63;3136216;27;113874;-59
2020/12/18 02:27:35;;;;;;;;;;;;;;;20.96;45.17;101123.78;3131461;27;114369;-59
2020/12/18 02:29:06;;;;;;;;;;;;;;;20.94;45.04;101120.47;3135802;27;114421;-59
2020/12/18 02:30:38;;;;;;;;;;;;;;;20.95;45.07;101119.28;3121256;27;114687;-59
2020/12/18 02:32:10;;;;;;;;;;;;;;;20.92;45.45;101112.34;3131123;27;114065;-59
2020/12/18 02:33:41;;;;;;;;;;;;;;;20.92;45.14;101123.56;3135814;27;113742;-60
2020/12/18 02:35:12;;;;;;;;;;;;;;;20.91;45.26;101119.09;3136230;27;114137;-58
2020/12/18 02:36:43;;;;;;;;;;;;;;;20.90;45.21;101119.38;3137242;27;114381;-59
2020/12/18 02:38:14;;;;;;;;;;;;;;;20.91;45.37;101118.25;3135576;27;115912;-58
2020/12/18 02:39:46;;;;;;;;;;;;;;;20.89;45.18;101107.34;3135774;27;114030;-58
2020/12/18 02:41:17;;;;;;;;;;;;;;;20.89;45.19;101110.16;3136565;27;115917;-59
2020/12/18 02:42:48;;;;;;;;;;;;;;;20.86;45.10;101105.13;3136313;27;118490;-59
2020/12/18 02:44:19;;;;;;;;;;;;;;;20.85;45.50;101112.72;3135497;27;114297;-57
2020/12/18 02:45:51;;;;;;;;;;;;;;;20.85;45.40;101112.72;3135998;27;115831;-57
2020/12/18 02:47:22;;;;;;;;;;;;;;;20.84;45.38;101110.22;3134390;27;115300;-56
2020/12/18 02:48:53;;;;;;;;;;;;;;;20.83;45.41;101102.94;3136054;27;115125;-56
2020/12/18 02:50:24;;;;;;;;;;;;;;;20.80;45.59;101107.19;3133907;27;115120;-56
2020/12/18 02:51:56;;;;;;;;;;;;;;;20.80;45.29;101101.56;3135720;27;115393;-57
2020/12/18 02:53:27;;;;;;;;;;;;;;;20.78;45.33;101105.81;3135259;27;114385;-57
2020/12/18 02:54:58;;;;;;;;;;;;;;;20.78;45.25;101117.06;3135505;27;115379;-57
2020/12/18 02:56:30;;;;;;;;;;;;;;;20.77;45.32;101105.00;3123025;27;115363;-57
2020/12/18 02:58:01;;;;;;;;;;;;;;;20.76;45.49;101108.09;3135428;27;115264;-57
2020/12/18 02:59:32;;;;;;;;;;;;;;;20.74;45.27;101105.63;3133902;27;114469;-57
2020/12/18 03:01:03;;;;;;;;;;;;;;;20.73;45.29;101115.16;3134720;27;115799;-57
2020/12/18 03:02:36;;;;;;;;;;;;;;;20.70;45.45;101104.56;3129877;27;115271;-57
2020/12/18 03:04:07;;;;;;;;;;;;;;;20.70;45.60;101109.34;3135527;27;115768;-57
2020/12/18 03:05:38;;;;;;;;;;;;;;;20.68;45.40;101106.81;3136191;27;115761;-57
2020/12/18 03:07:09;;;;;;;;;;;;;;;20.68;45.81;101106.00;3135368;27;115050;-58
2020/12/18 03:08:40;;;;;;;;;;;;;;;20.67;45.49;101105.16;3134793;27;115839;-56
2020/12/18 03:10:11;;;;;;;;;;;;;;;20.68;45.84;101106.81;3135901;27;114619;-56
2020/12/18 03:11:42;;;;;;;;;;;;;;;20.66;45.86;101106.31;3134936;27;114354;-57
2020/12/18 03:13:15;;;;;;;;;;;;;;;20.67;45.75;101107.97;3135213;27;115886;-56
2020/12/18 03:14:46;;;;;;;;;;;;;;;20.65;45.86;101115.88;3135755;27;115855;-56
2020/12/18 03:16:17;;;;;;;;;;;;;;;20.62;45.85;101105.25;3135887;27;115956;-57
2020/12/18 03:17:48;;;;;;;;;;;;;;;20.62;45.79;101102.47;3134824;27;115345;-56
2020/12/18 03:19:19;;;;;;;;;;;;;;;20.62;45.75;101096.84;3138955;27;116424;-58
2020/12/18 03:20:50;;;;;;;;;;;;;;;20.62;45.74;101096.00;3136021;27;114564;-58
2020/12/18 03:22:21;;;;;;;;;;;;;;;20.61;45.87;101095.16;3136167;27;113733;-58
2020/12/18 03:23:52;;;;;;;;;;;;;;;20.61;45.98;101092.34;3134502;27;113849;-58
2020/12/18 03:25:23;;;;;;;;;;;;;;;20.58;45.74;101086.53;3122734;27;114607;-59
2020/12/18 03:26:54;;;;;;;;;;;;;;;20.57;45.99;101088.50;3130721;27;114303;-60
2020/12/18 03:28:26;;;;;;;;;;;;;;;20.57;46.07;101076.44;3115989;27;113873;-57
2020/12/18 03:29:57;;;;;;;;;;;;;;;20.57;45.84;101071.66;3131478;27;114438;-57
2020/12/18 03:31:28;;;;;;;;;;;;;;;20.59;45.64;101072.16;3134597;27;113812;-57
2020/12/18 03:32:59;;;;;;;;;;;;;;;20.58;45.73;101080.91;3135219;27;113722;-57
2020/12/18 03:34:30;;;;;;;;;;;;;;;20.55;45.75;101079.53;3136026;27;113695;-57
2020/12/18 03:36:01;;;;;;;;;;;;;;;20.54;45.76;101075.06;3122224;27;113843;-57
2020/12/18 03:37:33;;;;;;;;;;;;;;;20.54;45.92;101068.59;3125255;27;114482;-57
2020/12/18 03:39:05;;;;;;;;;;;;;;;20.53;45.96;101064.16;3134634;27;114066;-57
2020/12/18 03:40:36;;;;;;;;;;;;;;;20.50;45.93;101071.19;3139748;27;113940;-57
2020/12/18 03:42:07;;;;;;;;;;;;;;;20.48;46.11;101062.25;3135497;27;115025;-57
2020/12/18 03:43:38;;;;;;;;;;;;;;;20.50;46.05;101070.34;3133419;27;115169;-57
2020/12/18 03:45:09;;;;;;;;;;;;;;;20.47;46.14;101071.81;3136473;27;115169;-56
2020/12/18 03:46:40;;;;;;;;;;;;;;;20.48;46.16;101073.47;3121370;27;115263;-56
2020/12/18 03:48:11;;;;;;;;;;;;;;;20.47;46.11;101080.22;3117914;27;115131;-56
2020/12/18 03:49:42;;;;;;;;;;;;;;;20.47;46.07;101070.97;3117814;27;115077;-56
2020/12/18 03:51:13;;;;;;;;;;;;;;;20.45;46.23;101079.69;3111386;27;114464;-57
2020/12/18 03:52:44;;;;;;;;;;;;;;;20.44;46.02;101080.84;3119649;27;114007;-57
2020/12/18 03:54:15;;;;;;;;;;;;;;;20.44;46.30;101082.81;3131050;27;115730;-57
2020/12/18 03:55:46;;;;;;;;;;;;;;;20.43;46.30;101079.19;3128948;27;115297;-57
2020/12/18 03:57:18;;;;;;;;;;;;;;;20.42;46.28;101075.53;3128550;27;114337;-56
2020/12/18 03:58:49;;;;;;;;;;;;;;;20.40;46.23;101085.38;3134926;27;116467;-57
2020/12/18 04:00:20;;;;;;;;;;;;;;;20.39;46.24;101076.16;3136377;27;115160;-56
2020/12/18 04:01:51;;;;;;;;;;;;;;;20.37;46.34;101075.59;3137683;27;114104;-56
2020/12/18 04:03:22;;;;;;;;;;;;;;;20.37;46.17;101080.38;3135877;27;115784;-56
2020/12/18 04:04:53;;;;;;;;;;;;;;;20.36;46.37;101079.53;3135917;27;115871;-56
2020/12/18 04:06:24;;;;;;;;;;;;;;;20.36;46.35;101073.09;3112207;27;115688;-56
2020/12/18 04:07:55;;;;;;;;;;;;;;;20.36;46.41;101061.88;3127342;27;115953;-56
2020/12/18 04:09:26;;;;;;;;;;;;;;;20.35;46.35;101063.84;3135024;27;116893;-57
2020/12/18 04:10:57;;;;;;;;;;;;;;;20.34;46.50;101066.97;3134375;27;115847;-57
2020/12/18 04:12:28;;;;;;;;;;;;;;;20.33;46.34;101063.31;3120480;27;114891;-57
2020/12/18 04:13:59;;;;;;;;;;;;;;;20.34;46.36;101061.34;3130732;27;115769;-57
2020/12/18 04:15:30;;;;;;;;;;;;;;;20.34;46.20;101056.59;3135176;27;114927;-57
2020/12/18 04:17:02;;;;;;;;;;;;;;;20.32;46.32;101067.25;3135635;27;114802;-57
2020/12/18 04:18:33;;;;;;;;;;;;;;;20.32;46.31;101052.41;3129006;27;115950;-57
2020/12/18 04:20:05;;;;;;;;;;;;;;;20.32;46.23;101046.78;3134366;27;116109;-58
2020/12/18 04:21:36;;;;;;;;;;;;;;;20.31;46.49;101045.09;3121803;27;115799;-57
2020/12/18 04:23:07;;;;;;;;;;;;;;;20.30;46.17;101049.91;3130518;27;115848;-58
2020/12/18 04:24:39;;;;;;;;;;;;;;;20.28;46.35;101045.69;3136509;27;115139;-58
2020/12/18 04:26:10;;;;;;;;;;;;;;;20.27;46.32;101050.47;3134721;27;113905;-57
2020/12/18 04:27:42;;;;;;;;;;;;;;;20.26;46.57;101048.78;3135595;27;114083;-57
2020/12/18 04:29:13;;;;;;;;;;;;;;;20.26;46.24;101045.19;3135258;27;114314;-57
2020/12/18 04:30:44;;;;;;;;;;;;;;;20.22;46.66;101039.31;3135945;27;113634;-57
2020/12/18 04:32:15;;;;;;;;;;;;;;;20.22;46.50;101042.13;3133648;27;114400;-57
2020/12/18 04:33:47;;;;;;;;;;;;;;;20.21;46.69;101039.66;3119954;27;114104;-58
2020/12/18 04:35:18;;;;;;;;;;;;;;;20.21;46.52;101043.28;3131035;27;114461;-60
2020/12/18 04:36:49;;;;;;;;;;;;;;;20.21;46.70;101042.44;3135397;27;114141;-59
2020/12/18 04:38:21;;;;;;;;;;;;;;;20.21;46.66;101036.84;3134250;27;114195;-59
2020/12/18 04:39:52;;;;;;;;;;;;;;;20.20;46.71;101026.75;3135266;27;114286;-59
2020/12/18 04:41:25;;;;;;;;;;;;;;;20.19;46.93;101036.28;3134991;27;114104;-58
2020/12/18 04:42:56;;;;;;;;;;;;;;;20.17;46.78;101025.38;3133497;27;114115;-61
2020/12/18 04:44:27;;;;;;;;;;;;;;;20.16;47.19;101026.53;3134716;27;113787;-59
2020/12/18 04:45:59;;;;;;;;;;;;;;;20.16;47.05;101026.53;3138708;27;114033;-58
2020/12/18 04:47:31;;;;;;;;;;;;;;;20.15;47.19;101026.81;3135169;27;114175;-58
2020/12/18 04:49:03;;;;;;;;;;;;;;;20.15;47.13;101029.63;3119871;27;115126;-59
2020/12/18 04:50:34;;;;;;;;;;;;;;;20.13;47.07;101023.47;3130649;27;115360;-57
2020/12/18 04:52:08;;;;;;;;;;;;;;;20.13;47.11;101032.72;3120255;27;115189;-57
2020/12/18 04:53:39;;;;;;;;;;;;;;;20.12;47.13;101035.88;3130734;27;115265;-57
2020/12/18 04:55:12;;;;;;;;;;;;;;;20.11;47.33;101035.03;3121949;27;115080;-55
2020/12/18 04:56:44;;;;;;;;;;;;;;;20.10;46.98;101036.16;3131211;27;116782;-56
2020/12/18 04:58:16;;;;;;;;;;;;;;;20.07;47.06;101035.94;3134945;27;114231;-58
2020/12/18 04:59:48;;;;;;;;;;;;;;;20.07;47.52;101038.75;3135240;27;115307;-58
2020/12/18 05:01:23;;;;;;;;;;;;;;;20.07;47.47;101025.56;3132520;27;114278;-59
2020/12/18 05:02:54;;;;;;;;;;;;;;;20.05;47.32;101033.41;3122644;27;114181;-59
2020/12/18 05:04:27;;;;;;;;;;;;;;;20.03;47.38;101037.69;3134550;27;114808;-58
2020/12/18 05:05:59;;;;;;;;;;;;;;;20.05;47.55;101035.38;3135633;27;115076;-59
2020/12/18 05:07:30;;;;;;;;;;;;;;;20.02;47.60;101030.41;3125066;27;115235;-60
2020/12/18 05:09:01;;;;;;;;;;;;;;;20.03;47.60;101040.47;3128877;27;115772;-59
2020/12/18 05:10:32;;;;;;;;;;;;;;;20.02;47.62;101031.22;3135233;27;115822;-59
2020/12/18 05:12:05;;;;;;;;;;;;;;;20.01;47.71;101035.16;3120629;27;114391;-58
2020/12/18 05:13:37;;;;;;;;;;;;;;;20.01;47.59;101029.56;3130753;27;115776;-57
2020/12/18 05:15:08;;;;;;;;;;;;;;;20.03;47.38;101034.88;3121631;27;116219;-60
2020/12/18 05:16:39;;;;;;;;;;;;;;;20.01;47.66;101043.59;3130203;27;114890;-60
2020/12/18 05:18:11;;;;;;;;;;;;;;;20.01;47.43;101028.72;3134947;27;114824;-60
2020/12/18 05:19:43;;;;;;;;;;;;;;;19.99;47.58;101029.84;3135732;27;114465;-58
2020/12/18 05:21:14;;;;;;;;;;;;;;;19.98;47.63;101036.63;3135315;27;115778;-60
2020/12/18 05:23:08;;;;;;;;;;;;;;;19.97;47.59;101032.13;3129673;27;114888;-57
2020/12/18 05:24:40;;;;;;;;;;;;;;;19.94;47.58;101029.91;3130705;27;115810;-58
2020/12/18 05:26:13;;;;;;;;;;;;;;;19.95;47.57;101025.16;3137651;27;115802;-59
2020/12/18 05:27:44;;;;;;;;;;;;;;;19.94;47.56;101024.31;3123067;27;115623;-59
2020/12/18 05:29:16;;;;;;;;;;;;;;;19.95;47.58;101011.13;3135930;27;114831;-58
2020/12/18 05:30:48;;;;;;;;;;;;;;;19.96;47.79;101033.28;3137128;27;114034;-59
2020/12/18 05:32:19;;;;;;;;;;;;;;;19.99;47.44;101015.81;3136564;27;113881;-59
2020/12/18 05:33:50;;;;;;;;;;;;;;;20.04;47.50;101002.84;3137377;27;114241;-58
2020/12/18 05:35:21;;;;;;;;;;;;;;;20.07;48.00;101013.50;3127263;27;114213;-59
2020/12/18 05:36:52;;;;;;;;;;;;;;;20.10;47.84;101007.25;3133346;27;113806;-60
2020/12/18 05:38:24;;;;;;;;;;;;;;;20.13;47.67;101001.03;3137412;27;113827;-58
2020/12/18 05:39:55;;;;;;;;;;;;;;;20.16;48.10;100997.66;3137126;27;113775;-59
2020/12/18 05:41:26;;;;;;;;;;;;;;;20.19;48.27;101005.44;3137321;27;113861;-59
2020/12/18 05:42:57;;;;;;;;;;;;;;;20.22;47.97;101002.84;3136672;27;115214;-59
2020/12/18 05:44:29;;;;;;;;;;;;;;;20.26;48.40;101008.72;3137453;27;114068;-59
2020/12/18 05:46:15;;;;;;;;;;;;;;;20.29;48.39;101008.09;3137845;27;113792;-59
2020/12/18 05:47:53;;;;;;;;;;;;;;;20.35;48.39;101018.13;3124096;27;115926;-60
2020/12/18 05:49:29;;;;;;;;;;;;;;;20.38;48.25;101023.97;3125271;27;113768;-59
2020/12/18 05:51:00;;;;;;;;;;;;;;;20.42;48.48;101027.81;3124993;27;113807;-59
2020/12/18 05:52:31;;;;;;;;;;;;;;;20.47;48.19;101026.91;3139853;27;114085;-58
2020/12/18 05:54:17;;;;;;;;;;;;;;;20.51;48.30;101036.38;3135288;27;114322;-58
2020/12/18 05:55:49;;;;;;;;;;;;;;;20.57;47.97;101020.28;3137725;27;115208;-58
2020/12/18 05:57:20;;;;;;;;;;;;;;;20.60;47.87;101026.13;3135991;27;115340;-58
2020/12/18 05:58:52;;;;;;;;;;;;;;;20.64;48.02;101015.94;3122899;27;114338;-58
2020/12/18 06:00:23;;;;;;;;;;;;;;;20.68;47.65;101016.97;3131552;27;113979;-59
2020/12/18 06:01:55;;;;;;;;;;;;;;;20.72;47.47;101028.41;3132732;27;115125;-59
2020/12/18 06:03:35;;;;;;;;;;;;;;;20.75;47.76;101011.81;3123269;27;114184;-59
2020/12/18 06:05:06;;;;;;;;;;;;;;;20.79;47.17;101009.22;3134620;27;116818;-59
2020/12/18 06:06:44;;;;;;;;;;;;;;;20.82;47.30;101028.25;3136843;27;115206;-59
2020/12/18 06:08:16;;;;;;;;;;;;;;;20.86;47.14;101004.00;3136188;27;114366;-59
2020/12/18 06:09:48;;;;;;;;;;;;;;;20.90;47.04;101007.88;3136865;27;114394;-59
2020/12/18 06:11:19;;;;;;;;;;;;;;;20.94;46.94;101011.72;3137151;27;115829;-60
2020/12/18 06:12:59;;;;;;;;;;;;;;;20.97;46.93;101005.50;3136556;27;115351;-59
2020/12/18 06:14:31;;;;;;;;;;;;;;;21.02;47.08;101013.00;3132258;27;114624;-58
2020/12/18 06:16:03;;;;;;;;;;;;;;;21.04;46.73;101016.31;3129782;27;114472;-57
2020/12/18 06:17:35;;;;;;;;;;;;;;;21.08;46.79;101018.19;3135717;27;114743;-58
2020/12/18 06:19:07;;;;;;;;;;;;;;;21.11;46.99;101009.16;3135829;27;114898;-57
2020/12/18 06:20:38;;;;;;;;;;;;;;;21.14;46.86;101017.00;3137006;27;115729;-59
2020/12/18 06:22:11;;;;;;;;;;;;;;;21.16;46.53;101011.91;3136849;27;114462;-58
2020/12/18 06:23:45;;;;;;;;;;;;;;;21.19;46.38;101011.28;3135014;27;114810;-59
2020/12/18 06:25:16;;;;;;;;;;;;;;;21.22;46.63;101015.44;3137440;27;115648;-58
2020/12/18 06:26:54;;;;;;;;;;;;;;;21.26;46.36;101011.69;3135450;27;114691;-57
2020/12/18 06:28:25;;;;;;;;;;;;;;;21.29;46.26;101013.06;3136684;27;114672;-57
2020/12/18 06:30:07;;;;;;;;;;;;;;;21.33;46.46;101024.50;3136420;27;115160;-57
2020/12/18 06:31:38;;;;;;;;;;;;;;;21.35;45.94;101014.59;3135248;27;114852;-57
2020/12/18 06:33:11;;;;;;;;;;;;;;;21.38;46.60;101016.81;3122056;27;114603;-57
2020/12/18 06:34:42;;;;;;;;;;;;;;;21.42;46.32;101015.03;3131250;27;114629;-58
2020/12/18 06:36:13;;;;;;;;;;;;;;;21.44;45.90;101004.28;3139909;27;115927;-59
2020/12/18 06:37:44;;;;;;;;;;;;;;;21.48;46.00;101019.41;3136515;27;114076;-58
2020/12/18 06:39:22;;;;;;;;;;;;;;;21.50;45.99;101010.63;3135221;27;114043;-58
2020/12/18 06:40:53;;;;;;;;;;;;;;;21.53;45.66;101004.41;3137248;27;114234;-58
2020/12/18 06:42:25;;;;;;;;;;;;;;;21.56;45.57;101004.59;3135959;27;114178;-58
2020/12/18 06:43:56;;;;;;;;;;;;;;;21.59;45.87;101005.94;3136049;27;113863;-58
2020/12/18 06:45:27;;;;;;;;;;;;;;;21.62;45.93;101008.16;3137280;27;114024;-59
2020/12/18 06:47:15;;;;;;;;;;;;;;;21.64;45.80;100997.41;3135781;27;114113;-59
2020/12/18 06:48:50;;;;;;;;;;;;;;;21.68;45.82;101016.16;3135659;27;114175;-58
2020/12/18 06:50:22;;;;;;;;;;;;;;;21.70;45.67;101010.22;3134719;27;115171;-59
2020/12/18 06:51:53;;;;;;;;;;;;;;;21.72;45.46;101008.75;3136961;27;114403;-59
2020/12/18 06:53:24;;;;;;;;;;;;;;;21.75;45.37;101010.09;3135865;27;113808;-59
2020/12/18 06:54:56;;;;;;;;;;;;;;;21.77;45.47;101004.16;3136172;27;114132;-59
2020/12/18 06:56:27;;;;;;;;;;;;;;;21.79;45.69;101005.50;3122714;27;113856;-62
2020/12/18 06:58:11;;;;;;;;;;;;;;;21.82;45.72;101004.03;3135559;27;114461;-59
2020/12/18 06:59:43;;;;;;;;;;;;;;;21.84;45.19;101004.56;3124674;27;113852;-59
2020/12/18 07:01:28;;;;;;;;;;;;;;;21.87;45.18;101004.75;3114656;27;115371;-59
2020/12/18 07:03:07;;;;;;;;;;;;;;;21.90;45.27;101000.47;3123045;27;115129;-59
2020/12/18 07:04:39;;;;;;;;;;;;;;;21.91;45.30;100996.50;3136624;27;115185;-59
2020/12/18 07:06:11;;;;;;;;;;;;;;;21.94;44.87;100993.13;3135431;27;115533;-59
2020/12/18 07:07:47;;;;;;;;;;;;;;;21.94;44.96;100988.28;3122327;27;114403;-59
2020/12/18 07:09:20;;;;;;;;;;;;;;;21.98;44.81;100994.97;3130790;27;116862;-59
2020/12/18 07:10:51;;;;;;;;;;;;;;;22.01;44.66;100990.69;3136066;27;114383;-58
2020/12/18 07:12:23;;;;;;;;;;;;;;;22.01;44.86;100987.88;3121945;27;114789;-59
2020/12/18 07:13:54;;;;;;;;;;;;;;;22.02;44.82;100987.56;3130081;27;114228;-58
2020/12/18 07:15:26;;;;;;;;;;;;;;;22.04;45.14;100984.41;3124684;27;115302;-58
2020/12/18 07:17:07;;;;;;;;;;;;;;;22.06;44.61;100977.34;3123414;27;115150;-57
2020/12/18 07:18:42;;;;;;;;;;;;;;;22.08;44.92;100991.91;3123329;27;114959;-58
2020/12/18 07:20:13;;;;;;;;;;;;;;;22.10;44.89;100989.63;3139404;27;114375;-58
2020/12/18 07:21:44;;;;;;;;;;;;;;;22.11;44.60;100988.47;3126055;27;114574;-58
2020/12/18 07:23:15;;;;;;;;;;;;;;;22.12;44.90;100987.28;3124385;27;114447;-58
2020/12/18 07:24:47;;;;;;;;;;;;;;;22.16;44.95;100987.50;3117208;27;114363;-59
2020/12/18 07:26:18;;;;;;;;;;;;;;;22.18;44.95;100988.84;3124968;27;115863;-58
2020/12/18 07:27:50;;;;;;;;;;;;;;;22.21;44.98;100997.81;3135780;27;115870;-59
2020/12/18 07:29:21;;;;;;;;;;;;;;;22.23;45.09;101001.97;3136432;27;115807;-58
2020/12/18 07:30:52;;;;;;;;;;;;;;;22.25;45.23;101002.50;3135087;27;114983;-59
2020/12/18 07:32:23;;;;;;;;;;;;;;;22.26;44.97;101001.31;3135353;27;115221;-59
2020/12/18 07:33:59;;;;;;;;;;;;;;;22.27;45.10;101002.97;3135958;27;115100;-58
2020/12/18 07:35:30;;;;;;;;;;;;;;;22.30;44.88;100999.56;3136131;27;115221;-58
2020/12/18 07:37:10;;;;;;;;;;;;;;;22.31;44.97;100998.38;3136131;27;115981;-58
2020/12/18 07:38:42;;;;;;;;;;;;;;;22.33;44.95;100998.91;3135055;27;115682;-58
2020/12/18 07:40:13;;;;;;;;;;;;;;;22.34;44.97;100996.94;3123061;27;117521;-60
2020/12/18 07:41:44;;;;;;;;;;;;;;;22.36;44.94;100991.78;3130092;27;114453;-60
2020/12/18 07:43:15;;;;;;;;;;;;;;;22.37;44.59;100982.19;3139198;27;115898;-59
2020/12/18 07:44:46;;;;;;;;;;;;;;;22.37;44.54;100980.22;3135438;27;114026;-59
2020/12/18 07:46:19;;;;;;;;;;;;;;;22.38;44.57;100993.16;3135953;27;114085;-60
2020/12/18 07:47:50;;;;;;;;;;;;;;;22.40;44.58;100981.56;3134917;27;113822;-59